createdAt,value
2017-11-01T00:01:17.459Z,6.80
2017-11-01T00:03:44.953Z,6.80
2017-11-01T00:06:12.575Z,6.80
2017-11-01T00:08:40.069Z,6.90
2017-11-01T00:11:07.598Z,6.80
2017-11-01T00:13:35.123Z,6.90
2017-11-01T00:16:03.423Z,6.70
2017-11-01T00:18:30.921Z,6.70
2017-11-01T00:20:58.415Z,6.70
2017-11-01T00:23:25.958Z,6.60
2017-11-01T00:25:53.451Z,6.60
2017-11-01T00:28:20.998Z,6.40
2017-11-01T00:30:48.502Z,6.50
2017-11-01T00:33:16.801Z,6.50
2017-11-01T00:35:44.318Z,6.50
2017-11-01T00:38:11.808Z,6.60
2017-11-01T00:40:39.339Z,6.70
2017-11-01T00:43:06.852Z,6.70
2017-11-01T00:45:34.392Z,6.80
2017-11-01T00:48:02.659Z,7.00
2017-11-01T00:50:30.975Z,7.10
2017-11-01T00:52:58.528Z,7.10
2017-11-01T00:55:26.031Z,7.20
2017-11-01T00:57:53.538Z,7.20
2017-11-01T01:00:21.075Z,7.30
2017-11-01T01:02:48.612Z,7.30
2017-11-01T01:05:16.128Z,7.30
2017-11-01T01:07:44.435Z,7.30
2017-11-01T01:10:11.944Z,7.30
2017-11-01T01:12:39.478Z,7.30
2017-11-01T01:15:07.032Z,7.30
2017-11-01T01:17:34.532Z,7.40
2017-11-01T01:20:02.062Z,7.50
2017-11-01T01:22:29.562Z,7.60
2017-11-01T01:24:57.085Z,7.70
2017-11-01T01:27:24.652Z,7.70
2017-11-01T01:29:52.155Z,7.70
2017-11-01T01:32:19.715Z,7.50
2017-11-01T01:34:47.206Z,7.30
2017-11-01T01:37:15.480Z,7.20
2017-11-01T01:39:43.022Z,7.10
2017-11-01T01:42:10.585Z,7.00
2017-11-01T01:44:38.115Z,7.00
2017-11-01T01:47:05.710Z,7.20
2017-11-01T01:49:33.235Z,7.10
2017-11-01T01:52:00.726Z,7.20
2017-11-01T01:54:28.242Z,7.20
2017-11-01T01:56:56.555Z,7.10
2017-11-01T01:59:24.084Z,7.10
2017-11-01T02:01:51.615Z,7.00
2017-11-01T02:04:19.104Z,6.90
2017-11-01T02:06:46.643Z,6.80
2017-11-01T02:09:14.143Z,6.70
2017-11-01T02:11:42.407Z,6.40
2017-11-01T02:14:09.937Z,6.40
2017-11-01T02:16:37.440Z,6.30
2017-11-01T02:19:04.982Z,6.40
2017-11-01T02:21:32.475Z,6.40
2017-11-01T02:24:00.746Z,6.40
2017-11-01T02:26:28.295Z,6.40
2017-11-01T02:28:55.799Z,6.40
2017-11-01T02:31:23.346Z,6.50
2017-11-01T02:33:51.619Z,6.50
2017-11-01T02:36:19.899Z,6.60
2017-11-01T02:38:48.225Z,6.60
2017-11-01T02:41:15.721Z,6.60
2017-11-01T02:43:43.269Z,6.60
2017-11-01T02:46:10.784Z,6.70
2017-11-01T02:48:39.078Z,6.80
2017-11-01T02:51:06.574Z,6.80
2017-11-01T02:53:34.094Z,7.00
2017-11-01T02:56:02.393Z,7.20
2017-11-01T02:58:29.894Z,7.20
2017-11-01T03:00:57.439Z,7.20
2017-11-01T03:03:24.937Z,7.20
2017-11-01T03:05:52.476Z,7.30
2017-11-01T03:08:20.037Z,7.30
2017-11-01T03:10:47.539Z,7.30
2017-11-01T03:13:15.234Z,7.40
2017-11-01T03:15:42.801Z,7.40
2017-11-01T03:18:10.363Z,7.40
2017-11-01T03:20:37.895Z,7.40
2017-11-01T03:23:05.419Z,7.50
2017-11-01T03:25:32.955Z,7.50
2017-11-01T03:28:00.527Z,7.60
2017-11-01T03:30:28.033Z,7.60
2017-11-01T03:32:55.555Z,7.60
2017-11-01T03:35:23.086Z,7.60
2017-11-01T03:37:50.609Z,7.60
2017-11-01T03:40:18.111Z,7.60
2017-11-01T03:42:45.675Z,7.60
2017-11-01T03:45:13.944Z,7.70
2017-11-01T03:47:41.472Z,7.70
2017-11-01T03:50:09.002Z,7.70
2017-11-01T03:52:36.548Z,7.70
2017-11-01T03:55:04.055Z,7.70
2017-11-01T03:57:31.593Z,7.70
2017-11-01T03:59:59.868Z,7.70
2017-11-01T04:02:28.130Z,7.70
2017-11-01T04:04:55.663Z,7.70
2017-11-01T04:07:23.184Z,7.80
2017-11-01T04:09:51.460Z,7.80
2017-11-01T04:12:19.731Z,7.70
2017-11-01T04:14:48.038Z,7.80
2017-11-01T04:17:15.627Z,7.80
2017-11-01T04:19:43.148Z,7.60
2017-11-01T04:22:11.416Z,7.60
2017-11-01T04:24:38.947Z,7.60
2017-11-01T04:27:06.474Z,7.50
2017-11-01T04:29:33.971Z,7.50
2017-11-01T04:32:01.547Z,7.50
2017-11-01T04:34:29.891Z,7.10
2017-11-01T04:36:57.403Z,7.10
2017-11-01T04:39:24.954Z,6.80
2017-11-01T04:41:52.467Z,6.70
2017-11-01T04:44:19.953Z,6.70
2017-11-01T04:46:47.475Z,6.70
2017-11-01T04:49:15.795Z,6.70
2017-11-01T04:51:43.313Z,6.70
2017-11-01T04:54:10.851Z,6.70
2017-11-01T04:56:41.427Z,6.80
2017-11-01T04:59:09.685Z,6.90
2017-11-01T05:01:38.136Z,6.90
2017-11-01T05:04:05.668Z,7.00
2017-11-01T05:06:33.195Z,7.10
2017-11-01T05:09:00.734Z,7.10
2017-11-01T05:11:33.957Z,7.10
2017-11-01T05:14:03.406Z,7.00
2017-11-01T05:16:32.798Z,6.90
2017-11-01T05:19:00.324Z,6.90
2017-11-01T05:21:27.883Z,6.90
2017-11-01T05:23:55.419Z,6.90
2017-11-01T05:26:22.923Z,6.90
2017-11-01T05:28:50.460Z,7.10
2017-11-01T05:31:19.808Z,7.20
2017-11-01T05:33:47.353Z,7.40
2017-11-01T05:36:14.847Z,7.50
2017-11-01T05:38:42.345Z,7.60
2017-11-01T05:41:09.878Z,7.60
2017-11-01T05:43:37.403Z,7.70
2017-11-01T05:46:04.975Z,7.70
2017-11-01T05:48:32.528Z,7.60
2017-11-01T05:51:00.033Z,7.70
2017-11-01T05:53:27.575Z,7.70
2017-11-01T05:55:56.988Z,7.70
2017-11-01T05:58:25.277Z,7.70
2017-11-01T06:00:53.556Z,7.70
2017-11-01T06:03:21.814Z,7.60
2017-11-01T06:05:49.409Z,7.60
2017-11-01T06:08:16.896Z,7.60
2017-11-01T06:10:44.431Z,7.50
2017-11-01T06:13:12.685Z,7.50
2017-11-01T06:15:40.199Z,7.50
2017-11-01T06:18:07.699Z,7.30
2017-11-01T06:20:35.183Z,7.30
2017-11-01T06:23:02.671Z,7.10
2017-11-01T06:25:30.201Z,7.20
2017-11-01T06:27:57.686Z,7.30
2017-11-01T06:30:26.000Z,7.40
2017-11-01T06:32:53.573Z,7.40
2017-11-01T06:35:21.092Z,7.50
2017-11-01T06:37:48.602Z,7.50
2017-11-01T06:40:16.719Z,7.60
2017-11-01T06:42:44.281Z,7.50
2017-11-01T06:45:11.820Z,7.60
2017-11-01T06:47:39.375Z,7.60
2017-11-01T06:50:06.937Z,7.70
2017-11-01T06:52:34.447Z,7.80
2017-11-01T06:55:02.732Z,7.90
2017-11-01T06:57:31.015Z,8.00
2017-11-01T06:59:58.608Z,8.00
2017-11-01T07:02:26.161Z,8.10
2017-11-01T07:04:54.566Z,8.20
2017-11-01T07:07:22.117Z,8.20
2017-11-01T07:09:49.647Z,8.30
2017-11-01T07:12:17.136Z,8.30
2017-11-01T07:14:44.736Z,8.40
2017-11-01T07:17:12.228Z,8.30
2017-11-01T07:19:39.750Z,8.40
2017-11-01T07:22:07.249Z,8.50
2017-11-01T07:24:34.797Z,8.60
2017-11-01T07:27:02.378Z,8.40
2017-11-01T07:29:29.872Z,8.50
2017-11-01T07:31:58.131Z,8.50
2017-11-01T07:34:25.673Z,8.50
2017-11-01T07:36:53.194Z,8.60
2017-11-01T07:39:20.700Z,8.40
2017-11-01T07:41:48.236Z,8.20
2017-11-01T07:44:15.727Z,8.20
2017-11-01T07:46:43.252Z,8.20
2017-11-01T07:49:10.747Z,8.30
2017-11-01T07:51:38.275Z,8.30
2017-11-01T07:54:05.799Z,8.30
2017-11-01T07:56:34.080Z,8.20
2017-11-01T07:59:01.618Z,8.20
2017-11-01T08:01:29.113Z,8.30
2017-11-01T08:03:57.415Z,8.40
2017-11-01T08:06:24.919Z,8.40
2017-11-01T08:08:52.442Z,8.50
2017-11-01T08:11:19.952Z,8.60
2017-11-01T08:13:47.443Z,8.70
2017-11-01T08:16:14.962Z,8.80
2017-11-01T08:18:42.466Z,9.00
2017-11-01T08:21:10.047Z,9.10
2017-11-01T08:23:38.321Z,9.10
2017-11-01T08:26:05.853Z,9.10
2017-11-01T08:28:33.352Z,9.30
2017-11-01T08:31:01.605Z,9.50
2017-11-01T08:33:29.148Z,9.50
2017-11-01T08:35:56.638Z,9.60
2017-11-01T08:38:24.202Z,9.70
2017-11-01T08:40:51.704Z,9.80
2017-11-01T08:43:19.200Z,9.50
2017-11-01T08:45:46.715Z,9.60
2017-11-01T08:48:14.982Z,9.70
2017-11-01T08:50:43.303Z,9.60
2017-11-01T08:53:10.881Z,9.60
2017-11-01T08:55:38.417Z,9.50
2017-11-01T08:58:06.671Z,9.50
2017-11-01T09:00:34.216Z,9.50
2017-11-01T09:03:01.917Z,9.60
2017-11-01T09:05:30.183Z,10.10
2017-11-01T09:07:58.118Z,10.10
2017-11-01T09:10:25.669Z,10.10
2017-11-01T09:12:53.229Z,10.40
2017-11-01T09:15:20.774Z,10.60
2017-11-01T09:17:49.162Z,10.50
2017-11-01T09:20:16.672Z,10.50
2017-11-01T09:22:44.187Z,10.50
2017-11-01T09:25:11.728Z,10.80
2017-11-01T09:27:40.024Z,11.40
2017-11-01T09:30:07.534Z,11.40
2017-11-01T09:32:35.040Z,11.70
2017-11-01T09:35:03.254Z,12.00
2017-11-01T09:37:31.568Z,12.50
2017-11-01T09:39:59.147Z,12.40
2017-11-01T09:42:26.667Z,12.80
2017-11-01T09:44:55.086Z,13.00
2017-11-01T09:47:22.622Z,13.00
2017-11-01T09:49:50.920Z,13.40
2017-11-01T09:52:18.456Z,13.40
2017-11-01T09:54:45.988Z,13.40
2017-11-01T09:57:13.511Z,13.40
2017-11-01T09:59:41.815Z,13.20
2017-11-01T10:02:09.324Z,13.20
2017-11-01T10:04:36.860Z,13.10
2017-11-01T10:07:04.420Z,13.10
2017-11-01T10:09:31.925Z,13.10
2017-11-01T10:11:59.494Z,13.00
2017-11-01T10:14:27.005Z,13.20
2017-11-01T10:16:54.559Z,13.30
2017-11-01T10:19:22.073Z,13.30
2017-11-01T10:21:49.586Z,13.40
2017-11-01T10:24:17.138Z,13.30
2017-11-01T10:26:44.689Z,13.40
2017-11-01T10:29:12.271Z,13.40
2017-11-01T10:31:39.775Z,13.50
2017-11-01T10:34:07.294Z,13.50
2017-11-01T10:36:34.859Z,13.50
2017-11-01T10:39:02.396Z,13.60
2017-11-01T10:41:30.705Z,13.90
2017-11-01T10:43:59.028Z,14.00
2017-11-01T10:46:26.553Z,14.00
2017-11-01T10:48:54.085Z,14.10
2017-11-01T10:51:21.662Z,14.00
2017-11-01T10:53:49.176Z,13.80
2017-11-01T10:56:16.722Z,14.00
2017-11-01T10:58:44.237Z,14.00
2017-11-01T11:01:11.805Z,14.30
2017-11-01T11:03:39.363Z,14.40
2017-11-01T11:06:06.921Z,14.40
2017-11-01T11:08:34.430Z,14.30
2017-11-01T11:11:01.951Z,14.30
2017-11-01T11:13:29.526Z,14.30
2017-11-01T11:15:57.100Z,14.50
2017-11-01T11:18:24.666Z,14.70
2017-11-01T11:20:52.959Z,14.60
2017-11-01T11:23:21.291Z,14.60
2017-11-01T11:25:48.803Z,14.60
2017-11-01T11:28:17.100Z,14.70
2017-11-01T11:30:44.662Z,14.60
2017-11-01T11:33:12.194Z,14.40
2017-11-01T11:35:39.782Z,14.40
2017-11-01T11:38:07.288Z,14.50
2017-11-01T11:40:34.853Z,14.90
2017-11-01T11:43:02.406Z,15.40
2017-11-01T11:45:29.907Z,15.90
2017-11-01T11:47:57.413Z,16.10
2017-11-01T11:50:24.963Z,16.60
2017-11-01T11:52:53.271Z,17.80
2017-11-01T11:55:20.824Z,17.80
2017-11-01T11:57:48.335Z,18.30
2017-11-01T12:00:15.986Z,18.80
2017-11-01T12:02:43.524Z,19.70
2017-11-01T12:05:11.059Z,20.50
2017-11-01T12:07:38.594Z,20.90
2017-11-01T12:10:06.104Z,20.80
2017-11-01T12:12:33.670Z,21.60
2017-11-01T12:15:01.213Z,22.10
2017-11-01T12:17:28.708Z,22.50
2017-11-01T12:19:56.203Z,22.70
2017-11-01T12:22:23.804Z,22.60
2017-11-01T12:24:51.361Z,22.50
2017-11-01T12:27:18.873Z,22.70
2017-11-01T12:29:46.425Z,22.60
2017-11-01T12:32:14.020Z,22.60
2017-11-01T12:34:41.524Z,22.50
2017-11-01T12:37:09.035Z,22.80
2017-11-01T12:39:36.599Z,23.00
2017-11-01T12:42:04.156Z,23.40
2017-11-01T12:44:31.716Z,23.40
2017-11-01T12:46:59.217Z,23.10
2017-11-01T12:49:26.768Z,22.60
2017-11-01T12:51:54.279Z,22.10
2017-11-01T12:54:21.825Z,22.40
2017-11-01T12:56:49.362Z,22.40
2017-11-01T12:59:16.889Z,22.40
2017-11-01T13:01:45.178Z,23.00
2017-11-01T13:04:13.505Z,22.90
2017-11-01T13:06:41.004Z,22.90
2017-11-01T13:09:08.500Z,23.10
2017-11-01T13:11:36.025Z,23.10
2017-11-01T13:14:04.325Z,23.00
2017-11-01T13:16:32.622Z,22.90
2017-11-01T13:19:00.109Z,22.90
2017-11-01T13:21:27.647Z,22.80
2017-11-01T13:23:55.170Z,22.80
2017-11-01T13:26:22.714Z,22.60
2017-11-01T13:28:50.644Z,23.00
2017-11-01T13:31:18.150Z,23.30
2017-11-01T13:33:45.655Z,23.60
2017-11-01T13:36:13.976Z,24.30
2017-11-01T13:38:41.553Z,24.30
2017-11-01T13:41:09.055Z,24.10
2017-11-01T13:43:36.603Z,24.00
2017-11-01T13:46:04.102Z,23.70
2017-11-01T13:48:32.371Z,23.20
2017-11-01T13:50:59.905Z,23.20
2017-11-01T13:53:27.455Z,22.60
2017-11-01T13:55:54.945Z,22.10
2017-11-01T13:58:22.443Z,22.20
2017-11-01T14:00:49.976Z,22.10
2017-11-01T14:03:17.524Z,22.40
2017-11-01T14:05:45.024Z,22.50
2017-11-01T14:08:12.553Z,22.50
2017-11-01T14:10:40.047Z,22.40
2017-11-01T14:13:08.352Z,22.20
2017-11-01T14:15:35.926Z,22.20
2017-11-01T14:18:03.458Z,22.00
2017-11-01T14:20:31.725Z,22.10
2017-11-01T14:22:59.249Z,22.10
2017-11-01T14:25:26.746Z,22.30
2017-11-01T14:27:54.297Z,22.20
2017-11-01T14:30:21.816Z,22.10
2017-11-01T14:32:49.387Z,22.00
2017-11-01T14:35:16.964Z,21.80
2017-11-01T14:37:44.488Z,21.70
2017-11-01T14:40:12.775Z,21.60
2017-11-01T14:42:41.104Z,21.40
2017-11-01T14:45:08.622Z,21.40
2017-11-01T14:47:36.147Z,21.30
2017-11-01T14:50:03.716Z,21.30
2017-11-01T14:52:31.287Z,21.40
2017-11-01T14:54:58.833Z,21.60
2017-11-01T14:57:26.429Z,21.40
2017-11-01T14:59:53.982Z,21.30
2017-11-01T15:02:21.504Z,21.30
2017-11-01T15:04:49.215Z,21.20
2017-11-01T15:07:16.764Z,21.00
2017-11-01T15:09:44.266Z,20.80
2017-11-01T15:12:11.779Z,20.60
2017-11-01T15:14:39.338Z,20.40
2017-11-01T15:17:06.859Z,20.10
2017-11-01T15:19:35.284Z,19.50
2017-11-01T15:22:02.796Z,19.40
2017-11-01T15:24:30.346Z,19.10
2017-11-01T15:26:57.860Z,18.70
2017-11-01T15:29:25.408Z,18.20
2017-11-01T15:31:53.684Z,17.30
2017-11-01T15:34:22.010Z,16.90
2017-11-01T15:36:49.522Z,16.90
2017-11-01T15:39:17.857Z,15.90
2017-11-01T15:41:51.995Z,15.80
2017-11-01T15:44:19.881Z,15.40
2017-11-01T15:46:47.534Z,14.90
2017-11-01T15:49:15.232Z,14.40
2017-11-01T15:51:43.530Z,13.70
2017-11-01T15:54:11.056Z,13.70
2017-11-01T15:56:38.585Z,13.40
2017-11-01T15:59:06.117Z,13.20
2017-11-01T16:01:33.633Z,12.90
2017-11-01T16:04:01.132Z,12.60
2017-11-01T16:06:29.433Z,12.20
2017-11-01T16:08:56.952Z,12.20
2017-11-01T16:11:24.493Z,12.00
2017-11-01T16:13:51.984Z,11.80
2017-11-01T16:16:19.487Z,11.60
2017-11-01T16:18:47.029Z,11.40
2017-11-01T16:21:15.316Z,11.20
2017-11-01T16:23:43.613Z,11.00
2017-11-01T16:26:11.121Z,11.00
2017-11-01T16:28:38.642Z,10.80
2017-11-01T16:31:06.169Z,10.70
2017-11-01T16:33:33.666Z,10.60
2017-11-01T16:36:01.210Z,10.50
2017-11-01T16:38:28.746Z,10.40
2017-11-01T16:40:56.299Z,10.30
2017-11-01T16:43:23.807Z,10.20
2017-11-01T16:45:52.125Z,10.00
2017-11-01T16:48:19.654Z,10.00
2017-11-01T16:50:47.931Z,9.80
2017-11-01T16:53:15.468Z,9.80
2017-11-01T16:55:43.032Z,9.80
2017-11-01T16:58:10.553Z,9.80
2017-11-01T17:00:38.068Z,9.70
2017-11-01T17:03:05.605Z,9.50
2017-11-01T17:05:33.135Z,9.60
2017-11-01T17:08:00.666Z,9.40
2017-11-01T17:10:28.187Z,9.40
2017-11-01T17:12:55.686Z,9.10
2017-11-01T17:15:23.238Z,9.10
2017-11-01T17:17:50.770Z,9.00
2017-11-01T17:20:18.310Z,8.80
2017-11-01T17:22:46.642Z,8.60
2017-11-01T17:25:14.177Z,8.60
2017-11-01T17:27:41.733Z,8.50
2017-11-01T17:30:09.226Z,8.30
2017-11-01T17:32:36.747Z,8.30
2017-11-01T17:35:04.316Z,8.30
2017-11-01T17:37:31.881Z,8.30
2017-11-01T17:40:00.195Z,8.10
2017-11-01T17:42:27.682Z,8.00
2017-11-01T17:44:55.224Z,8.00
2017-11-01T17:47:22.736Z,7.90
2017-11-01T17:49:50.309Z,7.90
2017-11-01T17:52:17.865Z,7.90
2017-11-01T17:54:45.380Z,7.80
2017-11-01T17:57:12.869Z,7.70
2017-11-01T17:59:40.399Z,7.60
2017-11-01T18:02:08.435Z,7.60
2017-11-01T18:04:35.962Z,7.50
2017-11-01T18:07:03.607Z,7.40
2017-11-01T18:09:31.180Z,7.40
2017-11-01T18:11:58.724Z,7.40
2017-11-01T18:14:26.239Z,7.40
2017-11-01T18:16:53.797Z,7.40
2017-11-01T18:19:21.291Z,7.40
2017-11-01T18:21:48.782Z,7.20
2017-11-01T18:24:17.245Z,7.20
2017-11-01T18:26:45.575Z,7.30
2017-11-01T18:29:13.092Z,7.20
2017-11-01T18:31:41.350Z,7.10
2017-11-01T18:34:08.906Z,7.10
2017-11-01T18:36:36.417Z,7.20
2017-11-01T18:39:04.477Z,7.20
2017-11-01T18:41:32.755Z,7.20
2017-11-01T18:44:01.037Z,7.10
2017-11-01T18:46:28.570Z,7.10
2017-11-01T18:48:56.070Z,7.10
2017-11-01T18:51:23.613Z,7.10
2017-11-01T18:53:51.946Z,6.80
2017-11-01T18:56:19.457Z,6.80
2017-11-01T18:58:46.948Z,6.70
2017-11-01T19:01:15.267Z,6.70
2017-11-01T19:03:42.799Z,6.70
2017-11-01T19:06:11.090Z,6.70
2017-11-01T19:08:38.630Z,6.70
2017-11-01T19:11:06.935Z,6.50
2017-11-01T19:13:34.473Z,6.50
2017-11-01T19:16:02.024Z,6.50
2017-11-01T19:18:29.589Z,6.50
2017-11-01T19:20:57.153Z,6.40
2017-11-01T19:23:24.648Z,6.50
2017-11-01T19:25:52.953Z,6.50
2017-11-01T19:28:20.483Z,6.50
2017-11-01T19:30:48.804Z,6.20
2017-11-01T19:33:16.325Z,6.20
2017-11-01T19:35:44.610Z,6.20
2017-11-01T19:38:12.945Z,6.00
2017-11-01T19:40:40.442Z,6.00
2017-11-01T19:43:08.010Z,6.10
2017-11-01T19:45:35.520Z,6.20
2017-11-01T19:48:03.095Z,6.20
2017-11-01T19:50:30.602Z,6.30
2017-11-01T19:52:58.176Z,6.50
2017-11-01T19:55:26.494Z,6.30
2017-11-01T19:57:54.007Z,6.30
2017-11-01T20:00:21.562Z,6.30
2017-11-01T20:02:49.053Z,6.40
2017-11-01T20:05:17.322Z,6.50
2017-11-01T20:07:45.226Z,6.50
2017-11-01T20:10:12.741Z,6.50
2017-11-01T20:12:40.252Z,6.30
2017-11-01T20:15:07.852Z,6.20
2017-11-01T20:17:35.388Z,6.20
2017-11-01T20:20:02.912Z,6.20
2017-11-01T20:22:30.483Z,6.20
2017-11-01T20:24:57.983Z,6.10
2017-11-01T20:27:25.521Z,6.00
2017-11-01T20:29:53.797Z,5.90
2017-11-01T20:32:21.300Z,5.80
2017-11-01T20:34:48.856Z,5.90
2017-11-01T20:37:16.370Z,5.90
2017-11-01T20:39:43.884Z,5.90
2017-11-01T20:42:11.415Z,6.00
2017-11-01T20:44:38.943Z,6.00
2017-11-01T20:47:06.436Z,5.90
2017-11-01T20:49:33.969Z,6.00
2017-11-01T20:52:01.496Z,6.00
2017-11-01T20:54:29.040Z,6.10
2017-11-01T20:56:57.338Z,6.20
2017-11-01T20:59:24.908Z,6.20
2017-11-01T21:01:52.445Z,6.10
2017-11-01T21:04:19.962Z,6.20
2017-11-01T21:06:47.501Z,6.20
2017-11-01T21:09:15.018Z,6.10
2017-11-01T21:11:42.560Z,6.00
2017-11-01T21:14:10.077Z,5.90
2017-11-01T21:16:37.592Z,5.80
2017-11-01T21:19:05.152Z,5.80
2017-11-01T21:21:32.648Z,5.80
2017-11-01T21:24:00.210Z,5.80
2017-11-01T21:26:27.706Z,5.80
2017-11-01T21:28:55.225Z,5.70
2017-11-01T21:31:22.752Z,5.80
2017-11-01T21:33:50.249Z,5.80
2017-11-01T21:36:17.789Z,5.80
2017-11-01T21:38:45.338Z,5.80
2017-11-01T21:41:12.890Z,5.80
2017-11-01T21:43:41.166Z,5.60
2017-11-01T21:46:08.704Z,5.60
2017-11-01T21:48:36.213Z,5.70
2017-11-01T21:51:03.764Z,5.60
2017-11-01T21:53:31.266Z,5.60
2017-11-01T21:55:58.793Z,5.60
2017-11-01T21:58:27.099Z,5.60
2017-11-01T22:00:54.720Z,5.60
2017-11-01T22:03:22.214Z,5.60
2017-11-01T22:05:49.764Z,5.60
2017-11-01T22:08:18.049Z,5.60
2017-11-01T22:10:45.592Z,5.50
2017-11-01T22:13:13.132Z,5.50
2017-11-01T22:15:40.642Z,5.60
2017-11-01T22:18:08.184Z,5.50
2017-11-01T22:20:35.718Z,5.40
2017-11-01T22:23:03.234Z,5.30
2017-11-01T22:25:31.532Z,5.30
2017-11-01T22:27:59.044Z,5.30
2017-11-01T22:30:26.601Z,5.40
2017-11-01T22:32:54.109Z,5.50
2017-11-01T22:35:21.596Z,5.60
2017-11-01T22:40:22.063Z,5.60
2017-11-01T22:42:49.563Z,5.60
2017-11-01T22:45:17.079Z,5.70
2017-11-01T22:47:44.618Z,5.70
2017-11-01T22:50:12.144Z,5.70
2017-11-01T22:52:39.685Z,5.80
2017-11-01T22:55:07.433Z,5.70
2017-11-01T22:57:34.983Z,5.70
2017-11-01T23:00:02.487Z,5.70
2017-11-01T23:02:30.076Z,5.70
2017-11-01T23:04:57.632Z,5.80
2017-11-01T23:07:25.131Z,5.90
2017-11-01T23:09:53.404Z,5.90
2017-11-01T23:12:21.699Z,5.90
2017-11-01T23:14:49.269Z,5.90
2017-11-01T23:17:16.790Z,6.00
2017-11-01T23:19:44.301Z,6.00
2017-11-01T23:22:11.857Z,6.00
2017-11-01T23:24:39.429Z,6.10
2017-11-01T23:27:06.952Z,6.10
2017-11-01T23:29:34.490Z,6.20
2017-11-01T23:32:02.329Z,6.30
2017-11-01T23:34:29.874Z,6.20
2017-11-01T23:36:58.807Z,6.30
2017-11-01T23:39:26.345Z,6.20
2017-11-01T23:41:53.977Z,6.30
2017-11-01T23:44:21.502Z,6.40
2017-11-01T23:46:49.046Z,6.50
2017-11-01T23:49:16.558Z,6.50
2017-11-01T23:51:44.092Z,6.50
2017-11-01T23:54:11.650Z,6.60
2017-11-01T23:56:39.194Z,6.60
2017-11-01T23:59:06.739Z,6.60
